THY8RW LTFM-LTAW

Flight info

Callsign THY8RW
Flight time 1h 3m
Altitude 33000
Route VICEN1E/36 VICEN UT380 ASMAP UL333 LATGA UT363 GURBU UL615 HAKCE
Aircraft B738/M-SDE2E3FGHIRWXY/LB1

Departure

Time 2026-05-04 16:48
Airport İstanbul Airport (LTFM)

Arrival

Time 2026-05-04 17:51
Airport Tokat Airport (LTAW)
Time Latitude Longitude Altitude Speed Heading
2026-05-04 15:50 41.26188 28.74833 312 ft 0 kts 251°
2026-05-04 16:33 41.26199 28.74889 311 ft 4 kts 263°
2026-05-04 16:33 41.26197 28.74956 312 ft 4 kts 289°
2026-05-04 16:34 41.26178 28.74988 312 ft 0 kts 341°
2026-05-04 16:41 41.26194 28.74984 312 ft 4 kts 356°
2026-05-04 16:41 41.26240 28.75138 312 ft 10 kts 88°
2026-05-04 16:42 41.26244 28.75396 313 ft 9 kts 90°
2026-05-04 16:43 41.26245 28.75515 313 ft 0 kts 88°
2026-05-04 16:45 41.26246 28.75567 313 ft 5 kts 89°
2026-05-04 16:46 41.26281 28.75666 315 ft 5 kts 359°
2026-05-04 16:46 41.26286 28.75666 315 ft 0 kts
2026-05-04 16:47 41.26321 28.75666 314 ft 24 kts
2026-05-04 16:47 41.27657 28.75644 285 ft 158 kts 357°
2026-05-04 16:48 41.30749 28.77032 2318 ft 186 kts 49°
2026-05-04 16:48 41.31848 28.78046 2579 ft 205 kts 16°
2026-05-04 16:49 41.34684 28.79832 3349 ft 243 kts 26°
2026-05-04 16:49 41.37526 28.82372 5023 ft 256 kts 49°
2026-05-04 16:50 41.38451 28.87073 6637 ft 276 kts 84°
2026-05-04 16:50 41.37842 28.92178 8164 ft 296 kts 119°
2026-05-04 16:51 41.35038 28.94796 9351 ft 312 kts 171°
2026-05-04 16:51 41.32142 28.94897 10335 ft 317 kts 181°
2026-05-04 16:51 41.27420 28.94857 10805 ft 363 kts 179°
2026-05-04 16:52 41.22963 28.94777 11115 ft 400 kts 183°
2026-05-04 16:52 41.20154 28.94507 11548 ft 411 kts 185°
2026-05-04 16:53 41.14416 28.93877 12787 ft 421 kts 184°
2026-05-04 16:53 41.05583 28.93059 14809 ft 428 kts 179°
2026-05-04 16:54 41.02661 28.93623 15414 ft 426 kts 159°
2026-05-04 16:55 40.93704 29.03397 17687 ft 425 kts 130°
2026-05-04 16:55 40.89508 29.08930 18741 ft 431 kts 131°
2026-05-04 16:56 40.85265 29.14605 19711 ft 434 kts 122°
2026-05-04 16:56 40.82376 29.25599 21115 ft 427 kts 99°
2026-05-04 16:57 40.81659 29.29418 21555 ft 430 kts 99°
2026-05-04 16:57 40.80141 29.37103 22375 ft 435 kts 100°
2026-05-04 16:58 40.77799 29.48794 23533 ft 442 kts 99°
2026-05-04 16:58 40.77013 29.52724 23892 ft 445 kts 99°
2026-05-04 16:59 40.75419 29.60661 24597 ft 449 kts 99°
2026-05-04 17:00 40.72773 29.76795 25960 ft 450 kts 92°
2026-05-04 17:00 40.71468 29.89059 26894 ft 455 kts 92°
2026-05-04 17:01 40.70519 29.97316 27583 ft 455 kts 93°
2026-05-04 17:01 40.69545 30.05497 28544 ft 449 kts 92°
2026-05-04 17:02 40.68578 30.13610 29286 ft 448 kts 92°
2026-05-04 17:02 40.67611 30.21680 30136 ft 443 kts 92°
2026-05-04 17:03 40.67130 30.25692 30494 ft 443 kts 92°
2026-05-04 17:03 40.66648 30.29696 30703 ft 445 kts 93°
2026-05-04 17:03 40.65870 30.37789 31240 ft 444 kts 90°
2026-05-04 17:04 40.65244 30.45891 31688 ft 447 kts 90°
2026-05-04 17:04 40.64579 30.53998 32223 ft 447 kts 91°
2026-05-04 17:05 40.63879 30.62133 32703 ft 449 kts 91°
2026-05-04 17:05 40.63161 30.70309 33182 ft 450 kts 93°
2026-05-04 17:06 40.61667 30.78384 33620 ft 456 kts 101°
2026-05-04 17:06 40.60787 30.82389 33844 ft 457 kts 101°
2026-05-04 17:07 40.59023 30.90458 34216 ft 458 kts 101°
2026-05-04 17:07 40.58449 30.93126 34388 ft 457 kts 101°
2026-05-04 17:07 40.57298 30.98518 34700 ft 457 kts 102°
2026-05-04 17:07 40.56441 31.02550 34867 ft 458 kts 102°
2026-05-04 17:08 40.55593 31.06542 35056 ft 459 kts 102°
2026-05-04 17:08 40.53869 31.14616 35498 ft 458 kts 102°
2026-05-04 17:08 40.53005 31.18647 35670 ft 459 kts 102°
2026-05-04 17:09 40.52136 31.22696 35801 ft 461 kts 103°
2026-05-04 17:09 40.51262 31.26751 35985 ft 461 kts 103°
2026-05-04 17:09 40.50389 31.30798 36201 ft 460 kts 103°
2026-05-04 17:10 40.48637 31.38907 36461 ft 463 kts 103°
2026-05-04 17:10 40.45992 31.51091 36976 ft 461 kts 104°
2026-05-04 17:11 40.44233 31.59169 36960 ft 459 kts 104°
2026-05-04 17:12 40.41629 31.71089 36951 ft 452 kts 104°
2026-05-04 17:13 40.37288 31.90831 36908 ft 451 kts 104°
2026-05-04 17:14 40.33688 32.06659 36911 ft 455 kts 105°
2026-05-04 17:15 40.31151 32.18691 36900 ft 458 kts 102°
2026-05-04 17:16 40.28048 32.34847 36897 ft 460 kts 103°
2026-05-04 17:17 40.25632 32.47036 36890 ft 460 kts 103°
2026-05-04 17:18 40.22652 32.61931 36885 ft 459 kts 103°
2026-05-04 17:19 40.19408 32.78037 36886 ft 456 kts 103°
2026-05-04 17:20 40.16158 32.94058 36888 ft 454 kts 104°
2026-05-04 17:20 40.14716 33.06112 36884 ft 449 kts 87°
2026-05-04 17:21 40.15280 33.22394 36886 ft 449 kts 87°
2026-05-04 17:22 40.15518 33.30551 36880 ft 450 kts 87°
2026-05-04 17:23 40.15941 33.46994 36884 ft 454 kts 88°
2026-05-04 17:24 40.16247 33.59390 36881 ft 456 kts 88°
2026-05-04 17:25 40.16636 33.75987 36872 ft 459 kts 88°
2026-05-04 17:26 40.15582 33.92451 36394 ft 448 kts 101°
2026-05-04 17:26 40.14018 34.04633 34261 ft 456 kts 97°
2026-05-04 17:27 40.13214 34.12651 34342 ft 446 kts 97°
2026-05-04 17:27 40.12366 34.20827 33952 ft 463 kts 97°
2026-05-04 17:28 40.11457 34.29215 33464 ft 471 kts 98°
2026-05-04 17:29 40.10058 34.41859 32012 ft 468 kts 98°
2026-05-04 17:29 40.08676 34.54251 30370 ft 443 kts 98°
2026-05-04 17:30 40.07366 34.65941 28996 ft 428 kts 99°
2026-05-04 17:31 40.06498 34.73590 27997 ft 422 kts 100°
2026-05-04 17:31 40.05211 34.84824 26604 ft 412 kts 101°
2026-05-04 17:32 40.04361 34.92176 25670 ft 406 kts 102°
2026-05-04 17:33 40.03106 35.02989 24275 ft 397 kts 103°
2026-05-04 17:33 40.02692 35.06533 23838 ft 395 kts 103°
2026-05-04 17:34 40.01464 35.17008 22519 ft 387 kts 103°
2026-05-04 17:34 40.01057 35.20462 22074 ft 384 kts 103°
2026-05-04 17:35 39.99846 35.30685 20790 ft 376 kts 102°
2026-05-04 17:35 39.99058 35.37309 20211 ft 357 kts 103°
2026-05-04 17:35 39.98671 35.40463 19950 ft 344 kts 103°
2026-05-04 17:36 39.98298 35.43447 19695 ft 332 kts 103°
2026-05-04 17:36 39.97932 35.46359 19442 ft 320 kts 103°
2026-05-04 17:36 39.97577 35.49176 19212 ft 308 kts 104°
2026-05-04 17:36 39.97236 35.51882 18957 ft 299 kts 104°
2026-05-04 17:37 39.96898 35.54544 18527 ft 296 kts 104°
2026-05-04 17:37 39.96562 35.57191 18065 ft 295 kts 104°
2026-05-04 17:37 39.96227 35.59821 17640 ft 292 kts 104°
2026-05-04 17:37 39.95896 35.62429 17206 ft 290 kts 104°
2026-05-04 17:38 39.95567 35.65014 16764 ft 288 kts 104°
2026-05-04 17:38 39.95240 35.67582 16338 ft 286 kts 104°
2026-05-04 17:38 39.94915 35.70133 15905 ft 284 kts 104°
2026-05-04 17:38 39.94593 35.72661 15484 ft 282 kts 104°
2026-05-04 17:39 39.94061 35.76821 14792 ft 278 kts 104°
2026-05-04 17:39 39.93643 35.80094 14203 ft 275 kts 104°
2026-05-04 17:39 39.93328 35.82549 13789 ft 273 kts 104°
2026-05-04 17:40 39.93013 35.84978 13364 ft 271 kts 104°
2026-05-04 17:40 39.92701 35.87400 12960 ft 270 kts 104°
2026-05-04 17:40 39.92528 35.89029 12707 ft 270 kts 96°
2026-05-04 17:40 39.92870 35.91417 12290 ft 278 kts 69°
2026-05-04 17:41 39.94046 35.93444 11914 ft 288 kts 40°
2026-05-04 17:41 39.95861 35.94599 11671 ft 291 kts 15°
2026-05-04 17:41 39.97854 35.95106 11455 ft 292 kts 12°
2026-05-04 17:41 39.99845 35.95547 11200 ft 295 kts 11°
2026-05-04 17:42 40.01856 35.95988 10983 ft 289 kts 12°
2026-05-04 17:42 40.03823 35.96429 10738 ft 283 kts 12°
2026-05-04 17:42 40.05731 35.96865 10554 ft 273 kts 12°
2026-05-04 17:42 40.07593 35.97296 10251 ft 269 kts 12°
2026-05-04 17:43 40.09433 35.97726 9937 ft 267 kts 13°
2026-05-04 17:43 40.11257 35.98158 9599 ft 265 kts 13°
2026-05-04 17:43 40.13054 35.98585 9277 ft 261 kts 13°
2026-05-04 17:43 40.14818 35.98984 8983 ft 259 kts 13°
2026-05-04 17:44 40.16592 35.99441 8667 ft 253 kts 22°
2026-05-04 17:44 40.18018 36.00524 8368 ft 241 kts 46°
2026-05-04 17:44 40.19302 36.01949 8073 ft 240 kts 44°
2026-05-04 17:44 40.20573 36.03344 7768 ft 236 kts 45°
2026-05-04 17:45 40.21821 36.04713 7493 ft 232 kts 44°
2026-05-04 17:45 40.23042 36.06059 7167 ft 227 kts 48°
2026-05-04 17:45 40.23800 36.07726 6937 ft 206 kts 77°
2026-05-04 17:45 40.24303 36.09465 6672 ft 203 kts 73°
2026-05-04 17:46 40.24838 36.11160 6461 ft 196 kts 73°
2026-05-04 17:46 40.25329 36.12795 6329 ft 196 kts 75°
2026-05-04 17:46 40.25771 36.14426 6071 ft 188 kts 75°
2026-05-04 17:46 40.26200 36.16000 5787 ft 179 kts 75°
2026-05-04 17:47 40.26612 36.17515 5511 ft 175 kts 75°
2026-05-04 17:47 40.27020 36.19017 5247 ft 176 kts 75°
2026-05-04 17:47 40.27436 36.20537 4976 ft 178 kts 75°
2026-05-04 17:47 40.27872 36.22058 4683 ft 179 kts 73°
2026-05-04 17:48 40.28280 36.23576 4422 ft 175 kts 76°
2026-05-04 17:48 40.28669 36.25079 4150 ft 173 kts 77°
2026-05-04 17:48 40.29056 36.26519 3918 ft 162 kts 75°
2026-05-04 17:48 40.29439 36.27878 3641 ft 156 kts 76°
2026-05-04 17:49 40.29806 36.29209 3400 ft 155 kts 73°
2026-05-04 17:49 40.30218 36.30522 3194 ft 155 kts 75°
2026-05-04 17:49 40.30576 36.31836 2914 ft 155 kts 72°
2026-05-04 17:49 40.30873 36.33190 2687 ft 154 kts 70°
2026-05-04 17:50 40.31232 36.34476 2457 ft 154 kts 67°
2026-05-04 17:50 40.31602 36.35802 2211 ft 155 kts 67°
2026-05-04 17:50 40.31970 36.37122 1980 ft 154 kts 69°
2026-05-04 17:50 40.32324 36.38408 1848 ft 140 kts 69°
2026-05-04 17:51 40.32579 36.39362 1847 ft 79 kts 70°
2026-05-04 17:51 40.32710 36.39841 1847 ft 42 kts 70°
2026-05-04 17:51 40.32796 36.40162 1848 ft 32 kts 70°
2026-05-04 17:51 40.32850 36.40356 1850 ft 15 kts 69°
2026-05-04 17:52 40.32901 36.40424 1850 ft 10 kts 31°
2026-05-04 17:52 40.32920 36.40492 1850 ft 9 kts 127°
2026-05-04 17:52 40.32869 36.40473 1851 ft 9 kts 247°
2026-05-04 17:52 40.32854 36.40393 1851 ft 9 kts 257°
2026-05-04 17:53 40.32836 36.40315 1849 ft 9 kts 252°
2026-05-04 17:53 40.32811 36.40221 1848 ft 13 kts 250°
2026-05-04 17:53 40.32778 36.40096 1848 ft 16 kts 250°
2026-05-04 17:53 40.32737 36.39949 1847 ft 18 kts 250°
2026-05-04 17:54 40.32694 36.39795 1847 ft 18 kts 250°
2026-05-04 17:54 40.32653 36.39646 1847 ft 17 kts 251°
2026-05-04 17:54 40.32616 36.39502 1846 ft 16 kts 251°
2026-05-04 17:54 40.32579 36.39365 1847 ft 16 kts 250°
2026-05-04 17:55 40.32542 36.39229 1848 ft 16 kts 251°
2026-05-04 17:55 40.32503 36.39083 1848 ft 17 kts 250°
2026-05-04 17:55 40.32464 36.38940 1848 ft 17 kts 250°
2026-05-04 17:55 40.32420 36.38780 1847 ft 20 kts 250°
2026-05-04 17:56 40.32372 36.38602 1847 ft 20 kts 250°
2026-05-04 17:56 40.32326 36.38429 1847 ft 20 kts 251°
2026-05-04 17:56 40.32279 36.38261 1849 ft 19 kts 250°
2026-05-04 17:56 40.32234 36.38099 1849 ft 19 kts 250°
2026-05-04 17:57 40.32196 36.37988 1850 ft 9 kts 226°
2026-05-04 17:57 40.32140 36.37971 1850 ft 9 kts 168°
2026-05-04 17:57 40.32085 36.37995 1849 ft 9 kts 160°
2026-05-04 17:57 40.32030 36.38021 1848 ft 8 kts 160°
2026-05-04 17:58 40.31975 36.38046 1848 ft 8 kts 168°
2026-05-04 17:58 40.31934 36.38004 1848 ft 7 kts 245°
2026-05-04 17:58 40.31899 36.37986 1848 ft 5 kts 169°
2026-05-04 17:58 40.31877 36.37995 1848 ft 2 kts 161°
2026-05-04 17:59 40.31870 36.37998 1848 ft 0 kts 161°